Česky Dansk Deutsch English Espańol Suomi Français Magyar Italiano Nederlands norsk Polski Portuguęs svenska Türkçe

 

Het Weer

Aberdeen / Dyce (Groot Britanië)

02:50, 28 juli 2016 (GMT)

NWNNE
WE
SWSSE
Home            
Aberdeen / Dyce Lossiemouth Kinloss Dundee / Riverside Leuchars Perth / Scone Inverness / Dalcross Tain Range Wick Edinburgh Airport Kirkwall Airport Glasgow Airport Boulmer Prestwick Airport Spadeadam Newcastle Carlisle Stornoway Campbeltown Machrihanish Tiree Islay Tees-Side

Om een weerknop op uw website of weblog te plaatsen, copieer onderstaande code en plak die in uw pagina. In het eerste vakje staat HTML-code, in het tweede vakje UBB-code.


Add to Google

Details

Wind speed:2 bf, 4 kn, 2.1 m/s, 4.6 miles/h, 7.4 km/h
Wind direction:S, 180°
Láthatóság általában:Nagyobb, mint 10000 m, 10 km, 32800 ft, 6.2 miles
Hőmérséklet:9°C, 48°F
Harmatpont:7°C, 45°F
Légköri nyomás:1011 hPa, 758.3 mmHg, 29.85 inHg, 0.998 atm
Relatív páratartalom:87.3 %
METAR:EGPD 280250Z AUTO 18004KT 9999 NCD 09/07 Q1011

Snelkoppelingen

Actuele weersinformatie van de hele wereld. Voeg locaties toe met het plus (+) symbool. Deze snelkoppelingen kunnen worden toegevoegd aan Google.

Lid van de Technetium groep

website free tracking
StatCounter NetStat W3C Validator

18-08-2022 03:45:19
astro.technetium.be money.technetium.be phote.technetium.be tafeltennistafel.technetium.be www.ligfiets.net